sensor_id;sensor_type;location;lat;lon;timestamp;P1;durP1;ratioP1;P2;durP2;ratioP2
79399;SDS011;68856;45.586;10.264;2023-05-19T00:01:11;3.80;;;1.75;;
79399;SDS011;68856;45.586;10.264;2023-05-19T00:03:50;2.45;;;1.98;;
79399;SDS011;68856;45.586;10.264;2023-05-19T00:06:18;3.38;;;2.40;;
79399;SDS011;68856;45.586;10.264;2023-05-19T00:08:45;5.00;;;1.98;;
79399;SDS011;68856;45.586;10.264;2023-05-19T00:11:12;3.22;;;2.28;;
79399;SDS011;68856;45.586;10.264;2023-05-19T00:13:38;2.30;;;2.10;;
79399;SDS011;68856;45.586;10.264;2023-05-19T00:16:04;2.80;;;2.35;;
79399;SDS011;68856;45.586;10.264;2023-05-19T00:18:30;3.25;;;2.13;;
79399;SDS011;68856;45.586;10.264;2023-05-19T00:20:57;2.22;;;2.00;;
79399;SDS011;68856;45.586;10.264;2023-05-19T00:23:23;3.72;;;2.20;;
79399;SDS011;68856;45.586;10.264;2023-05-19T00:25:49;2.90;;;2.60;;
79399;SDS011;68856;45.586;10.264;2023-05-19T00:28:16;2.60;;;2.40;;
79399;SDS011;68856;45.586;10.264;2023-05-19T00:30:42;4.43;;;2.40;;
79399;SDS011;68856;45.586;10.264;2023-05-19T00:33:08;3.15;;;2.65;;
79399;SDS011;68856;45.586;10.264;2023-05-19T00:35:34;2.47;;;2.28;;
79399;SDS011;68856;45.586;10.264;2023-05-19T00:38:00;2.83;;;2.40;;
79399;SDS011;68856;45.586;10.264;2023-05-19T00:40:26;3.97;;;2.40;;
79399;SDS011;68856;45.586;10.264;2023-05-19T00:42:55;3.40;;;2.38;;
79399;SDS011;68856;45.586;10.264;2023-05-19T00:45:21;4.18;;;2.13;;
79399;SDS011;68856;45.586;10.264;2023-05-19T00:47:47;5.72;;;2.08;;
79399;SDS011;68856;45.586;10.264;2023-05-19T00:50:13;2.88;;;2.67;;
79399;SDS011;68856;45.586;10.264;2023-05-19T00:52:39;4.65;;;2.60;;
79399;SDS011;68856;45.586;10.264;2023-05-19T00:55:05;5.50;;;2.30;;
79399;SDS011;68856;45.586;10.264;2023-05-19T00:57:33;2.22;;;2.03;;
79399;SDS011;68856;45.586;10.264;2023-05-19T00:59:59;4.68;;;2.78;;
79399;SDS011;68856;45.586;10.264;2023-05-19T01:02:25;3.78;;;2.40;;
79399;SDS011;68856;45.586;10.264;2023-05-19T01:04:53;3.22;;;2.63;;
79399;SDS011;68856;45.586;10.264;2023-05-19T01:07:21;3.50;;;2.70;;
79399;SDS011;68856;45.586;10.264;2023-05-19T01:09:48;2.70;;;2.35;;
79399;SDS011;68856;45.586;10.264;2023-05-19T01:12:14;4.13;;;1.90;;
79399;SDS011;68856;45.586;10.264;2023-05-19T01:14:40;4.15;;;2.50;;
79399;SDS011;68856;45.586;10.264;2023-05-19T01:17:14;3.47;;;2.95;;
79399;SDS011;68856;45.586;10.264;2023-05-19T01:20:00;3.53;;;2.38;;
79399;SDS011;68856;45.586;10.264;2023-05-19T01:22:38;2.05;;;1.95;;
79399;SDS011;68856;45.586;10.264;2023-05-19T01:32:33;4.40;;;2.50;;
79399;SDS011;68856;45.586;10.264;2023-05-19T01:34:59;4.03;;;2.53;;
79399;SDS011;68856;45.586;10.264;2023-05-19T01:37:26;7.00;;;3.20;;
79399;SDS011;68856;45.586;10.264;2023-05-19T01:39:53;4.72;;;2.40;;
79399;SDS011;68856;45.586;10.264;2023-05-19T01:42:20;2.47;;;2.28;;
79399;SDS011;68856;45.586;10.264;2023-05-19T01:44:47;4.50;;;2.83;;
79399;SDS011;68856;45.586;10.264;2023-05-19T01:47:13;3.03;;;2.30;;
79399;SDS011;68856;45.586;10.264;2023-05-19T01:49:39;2.33;;;2.13;;
79399;SDS011;68856;45.586;10.264;2023-05-19T01:52:06;2.70;;;2.40;;
79399;SDS011;68856;45.586;10.264;2023-05-19T01:54:32;4.22;;;2.65;;
79399;SDS011;68856;45.586;10.264;2023-05-19T02:02:25;4.85;;;2.42;;
79399;SDS011;68856;45.586;10.264;2023-05-19T02:04:56;4.75;;;2.70;;
79399;SDS011;68856;45.586;10.264;2023-05-19T02:15:12;2.42;;;2.00;;
79399;SDS011;68856;45.586;10.264;2023-05-19T02:17:40;2.70;;;2.25;;
79399;SDS011;68856;45.586;10.264;2023-05-19T02:20:06;3.88;;;2.22;;
79399;SDS011;68856;45.586;10.264;2023-05-19T02:22:36;5.00;;;2.33;;
79399;SDS011;68856;45.586;10.264;2023-05-19T02:25:02;5.65;;;2.20;;
79399;SDS011;68856;45.586;10.264;2023-05-19T02:27:28;2.83;;;2.38;;
79399;SDS011;68856;45.586;10.264;2023-05-19T02:29:54;3.22;;;2.20;;
79399;SDS011;68856;45.586;10.264;2023-05-19T02:32:21;3.85;;;2.50;;
79399;SDS011;68856;45.586;10.264;2023-05-19T02:34:47;2.38;;;2.13;;
79399;SDS011;68856;45.586;10.264;2023-05-19T02:37:13;3.85;;;1.88;;
79399;SDS011;68856;45.586;10.264;2023-05-19T02:39:40;4.45;;;2.00;;
79399;SDS011;68856;45.586;10.264;2023-05-19T02:42:06;3.33;;;2.50;;
79399;SDS011;68856;45.586;10.264;2023-05-19T02:44:32;4.88;;;2.60;;
79399;SDS011;68856;45.586;10.264;2023-05-19T02:46:59;4.80;;;2.30;;
79399;SDS011;68856;45.586;10.264;2023-05-19T02:49:25;3.05;;;2.03;;
79399;SDS011;68856;45.586;10.264;2023-05-19T02:51:54;2.97;;;2.50;;
79399;SDS011;68856;45.586;10.264;2023-05-19T02:54:21;5.85;;;2.60;;
79399;SDS011;68856;45.586;10.264;2023-05-19T02:56:47;3.03;;;1.70;;
79399;SDS011;68856;45.586;10.264;2023-05-19T02:59:13;3.45;;;2.17;;
79399;SDS011;68856;45.586;10.264;2023-05-19T03:01:39;4.65;;;2.08;;
79399;SDS011;68856;45.586;10.264;2023-05-19T03:04:05;3.90;;;2.53;;
79399;SDS011;68856;45.586;10.264;2023-05-19T03:06:31;4.13;;;2.15;;
79399;SDS011;68856;45.586;10.264;2023-05-19T03:08:58;5.95;;;2.50;;
79399;SDS011;68856;45.586;10.264;2023-05-19T03:11:24;4.32;;;2.55;;
79399;SDS011;68856;45.586;10.264;2023-05-19T03:13:50;2.60;;;1.63;;
79399;SDS011;68856;45.586;10.264;2023-05-19T03:16:16;3.42;;;1.90;;
79399;SDS011;68856;45.586;10.264;2023-05-19T03:18:43;4.65;;;2.65;;
79399;SDS011;68856;45.586;10.264;2023-05-19T03:21:09;2.22;;;2.05;;
79399;SDS011;68856;45.586;10.264;2023-05-19T03:23:35;3.53;;;2.45;;
79399;SDS011;68856;45.586;10.264;2023-05-19T03:26:01;2.53;;;2.33;;
79399;SDS011;68856;45.586;10.264;2023-05-19T03:28:27;4.10;;;2.53;;
79399;SDS011;68856;45.586;10.264;2023-05-19T03:30:53;4.32;;;2.40;;
79399;SDS011;68856;45.586;10.264;2023-05-19T03:33:19;2.75;;;2.55;;
79399;SDS011;68856;45.586;10.264;2023-05-19T03:35:46;5.60;;;2.70;;
79399;SDS011;68856;45.586;10.264;2023-05-19T03:38:12;3.42;;;2.40;;
79399;SDS011;68856;45.586;10.264;2023-05-19T03:40:38;3.97;;;2.35;;
79399;SDS011;68856;45.586;10.264;2023-05-19T03:43:05;3.08;;;2.10;;
79399;SDS011;68856;45.586;10.264;2023-05-19T03:45:31;3.95;;;2.40;;
79399;SDS011;68856;45.586;10.264;2023-05-19T03:47:58;3.70;;;2.47;;
79399;SDS011;68856;45.586;10.264;2023-05-19T03:50:24;2.15;;;1.95;;
79399;SDS011;68856;45.586;10.264;2023-05-19T03:52:53;3.47;;;2.30;;
79399;SDS011;68856;45.586;10.264;2023-05-19T03:55:19;4.32;;;2.03;;
79399;SDS011;68856;45.586;10.264;2023-05-19T03:57:45;2.60;;;2.25;;
79399;SDS011;68856;45.586;10.264;2023-05-19T04:00:12;4.80;;;2.78;;
79399;SDS011;68856;45.586;10.264;2023-05-19T04:02:39;3.78;;;2.40;;
79399;SDS011;68856;45.586;10.264;2023-05-19T04:05:05;3.75;;;2.45;;
79399;SDS011;68856;45.586;10.264;2023-05-19T04:07:31;6.03;;;2.53;;
79399;SDS011;68856;45.586;10.264;2023-05-19T04:09:57;4.20;;;2.22;;
79399;SDS011;68856;45.586;10.264;2023-05-19T04:12:24;4.70;;;2.55;;
79399;SDS011;68856;45.586;10.264;2023-05-19T04:14:50;3.35;;;2.85;;
79399;SDS011;68856;45.586;10.264;2023-05-19T04:17:16;5.40;;;2.50;;
79399;SDS011;68856;45.586;10.264;2023-05-19T04:19:42;4.40;;;2.40;;
79399;SDS011;68856;45.586;10.264;2023-05-19T04:22:08;5.95;;;2.78;;
79399;SDS011;68856;45.586;10.264;2023-05-19T04:24:35;2.97;;;2.65;;
79399;SDS011;68856;45.586;10.264;2023-05-19T04:27:01;4.15;;;2.80;;
79399;SDS011;68856;45.586;10.264;2023-05-19T04:29:28;4.45;;;2.50;;
79399;SDS011;68856;45.586;10.264;2023-05-19T04:31:54;4.25;;;2.38;;
79399;SDS011;68856;45.586;10.264;2023-05-19T04:34:24;4.93;;;2.47;;
79399;SDS011;68856;45.586;10.264;2023-05-19T04:36:52;4.95;;;2.55;;
79399;SDS011;68856;45.586;10.264;2023-05-19T04:39:19;3.95;;;2.33;;
79399;SDS011;68856;45.586;10.264;2023-05-19T04:41:45;3.55;;;2.85;;
79399;SDS011;68856;45.586;10.264;2023-05-19T04:44:12;4.22;;;2.60;;
79399;SDS011;68856;45.586;10.264;2023-05-19T04:46:42;3.60;;;2.60;;
79399;SDS011;68856;45.586;10.264;2023-05-19T04:49:09;4.30;;;3.20;;
79399;SDS011;68856;45.586;10.264;2023-05-19T04:51:36;4.13;;;2.60;;
79399;SDS011;68856;45.586;10.264;2023-05-19T04:54:05;8.25;;;2.75;;
79399;SDS011;68856;45.586;10.264;2023-05-19T04:56:31;4.78;;;2.38;;
79399;SDS011;68856;45.586;10.264;2023-05-19T04:58:57;6.05;;;2.40;;
79399;SDS011;68856;45.586;10.264;2023-05-19T05:01:23;3.20;;;2.30;;
79399;SDS011;68856;45.586;10.264;2023-05-19T05:03:50;6.18;;;2.50;;
79399;SDS011;68856;45.586;10.264;2023-05-19T05:06:19;6.47;;;2.80;;
79399;SDS011;68856;45.586;10.264;2023-05-19T05:08:46;3.60;;;2.33;;
79399;SDS011;68856;45.586;10.264;2023-05-19T05:11:12;3.90;;;2.70;;
79399;SDS011;68856;45.586;10.264;2023-05-19T05:13:38;2.92;;;2.63;;
79399;SDS011;68856;45.586;10.264;2023-05-19T05:16:05;5.13;;;2.55;;
79399;SDS011;68856;45.586;10.264;2023-05-19T05:18:32;3.25;;;2.45;;
79399;SDS011;68856;45.586;10.264;2023-05-19T05:20:58;4.18;;;2.40;;
79399;SDS011;68856;45.586;10.264;2023-05-19T05:23:25;4.50;;;2.70;;
79399;SDS011;68856;45.586;10.264;2023-05-19T05:25:51;4.03;;;2.83;;
79399;SDS011;68856;45.586;10.264;2023-05-19T05:28:17;6.13;;;2.40;;
79399;SDS011;68856;45.586;10.264;2023-05-19T05:30:43;6.72;;;2.97;;
79399;SDS011;68856;45.586;10.264;2023-05-19T05:33:10;3.15;;;2.38;;
79399;SDS011;68856;45.586;10.264;2023-05-19T05:35:36;3.20;;;2.80;;
79399;SDS011;68856;45.586;10.264;2023-05-19T05:38:03;3.10;;;2.60;;
79399;SDS011;68856;45.586;10.264;2023-05-19T05:40:29;5.07;;;2.75;;
79399;SDS011;68856;45.586;10.264;2023-05-19T05:42:55;5.05;;;3.10;;
79399;SDS011;68856;45.586;10.264;2023-05-19T05:45:22;3.83;;;2.75;;
79399;SDS011;68856;45.586;10.264;2023-05-19T05:47:49;4.90;;;2.90;;
79399;SDS011;68856;45.586;10.264;2023-05-19T05:50:15;5.10;;;3.28;;
79399;SDS011;68856;45.586;10.264;2023-05-19T05:52:41;4.80;;;3.55;;
79399;SDS011;68856;45.586;10.264;2023-05-19T05:55:10;5.90;;;3.50;;
79399;SDS011;68856;45.586;10.264;2023-05-19T05:57:37;4.05;;;3.13;;
79399;SDS011;68856;45.586;10.264;2023-05-19T06:00:06;5.80;;;3.30;;
79399;SDS011;68856;45.586;10.264;2023-05-19T06:02:40;9.00;;;3.53;;
79399;SDS011;68856;45.586;10.264;2023-05-19T06:05:07;6.53;;;3.55;;
79399;SDS011;68856;45.586;10.264;2023-05-19T06:07:36;4.40;;;3.63;;
79399;SDS011;68856;45.586;10.264;2023-05-19T06:10:03;4.80;;;3.45;;
79399;SDS011;68856;45.586;10.264;2023-05-19T06:12:29;4.75;;;3.53;;
79399;SDS011;68856;45.586;10.264;2023-05-19T06:14:55;5.72;;;3.53;;
79399;SDS011;68856;45.586;10.264;2023-05-19T06:17:21;3.92;;;3.50;;
79399;SDS011;68856;45.586;10.264;2023-05-19T06:19:47;8.05;;;3.97;;
79399;SDS011;68856;45.586;10.264;2023-05-19T06:22:13;6.60;;;3.88;;
79399;SDS011;68856;45.586;10.264;2023-05-19T06:24:40;5.43;;;4.25;;
79399;SDS011;68856;45.586;10.264;2023-05-19T06:27:06;7.30;;;3.72;;
79399;SDS011;68856;45.586;10.264;2023-05-19T06:29:32;5.78;;;3.50;;
79399;SDS011;68856;45.586;10.264;2023-05-19T06:31:58;5.38;;;3.65;;
79399;SDS011;68856;45.586;10.264;2023-05-19T06:34:24;7.43;;;4.05;;
79399;SDS011;68856;45.586;10.264;2023-05-19T06:36:50;7.60;;;4.22;;
79399;SDS011;68856;45.586;10.264;2023-05-19T06:39:16;4.55;;;3.22;;
79399;SDS011;68856;45.586;10.264;2023-05-19T06:41:42;4.18;;;3.50;;
79399;SDS011;68856;45.586;10.264;2023-05-19T06:44:09;7.40;;;3.67;;
79399;SDS011;68856;45.586;10.264;2023-05-19T06:46:35;7.38;;;3.83;;
79399;SDS011;68856;45.586;10.264;2023-05-19T06:49:01;4.10;;;3.67;;
79399;SDS011;68856;45.586;10.264;2023-05-19T06:51:27;6.65;;;3.85;;
79399;SDS011;68856;45.586;10.264;2023-05-19T06:53:53;5.82;;;3.70;;
79399;SDS011;68856;45.586;10.264;2023-05-19T06:56:19;3.90;;;3.42;;
79399;SDS011;68856;45.586;10.264;2023-05-19T06:58:47;4.38;;;3.60;;
79399;SDS011;68856;45.586;10.264;2023-05-19T07:01:13;6.68;;;3.78;;
79399;SDS011;68856;45.586;10.264;2023-05-19T07:03:39;5.95;;;4.03;;
79399;SDS011;68856;45.586;10.264;2023-05-19T07:06:05;5.32;;;3.88;;
79399;SDS011;68856;45.586;10.264;2023-05-19T07:08:31;5.10;;;3.45;;
79399;SDS011;68856;45.586;10.264;2023-05-19T07:10:59;4.75;;;4.03;;
79399;SDS011;68856;45.586;10.264;2023-05-19T07:13:25;6.32;;;4.20;;
79399;SDS011;68856;45.586;10.264;2023-05-19T07:15:51;5.70;;;3.67;;
79399;SDS011;68856;45.586;10.264;2023-05-19T07:18:20;8.25;;;4.28;;
79399;SDS011;68856;45.586;10.264;2023-05-19T07:20:46;7.35;;;4.47;;
79399;SDS011;68856;45.586;10.264;2023-05-19T07:23:12;5.80;;;4.53;;
79399;SDS011;68856;45.586;10.264;2023-05-19T07:25:38;7.10;;;4.28;;
79399;SDS011;68856;45.586;10.264;2023-05-19T07:28:04;5.45;;;4.45;;
79399;SDS011;68856;45.586;10.264;2023-05-19T07:30:30;6.45;;;5.00;;
79399;SDS011;68856;45.586;10.264;2023-05-19T07:32:56;6.45;;;5.07;;
79399;SDS011;68856;45.586;10.264;2023-05-19T07:35:22;8.55;;;5.13;;
79399;SDS011;68856;45.586;10.264;2023-05-19T07:37:49;8.45;;;5.05;;
79399;SDS011;68856;45.586;10.264;2023-05-19T07:40:16;9.50;;;4.95;;
79399;SDS011;68856;45.586;10.264;2023-05-19T07:42:42;7.93;;;5.60;;
79399;SDS011;68856;45.586;10.264;2023-05-19T07:45:09;6.18;;;5.35;;
79399;SDS011;68856;45.586;10.264;2023-05-19T07:47:35;7.47;;;5.30;;
79399;SDS011;68856;45.586;10.264;2023-05-19T07:50:02;6.07;;;5.05;;
79399;SDS011;68856;45.586;10.264;2023-05-19T07:52:28;8.65;;;5.32;;
79399;SDS011;68856;45.586;10.264;2023-05-19T07:54:54;6.70;;;4.70;;
79399;SDS011;68856;45.586;10.264;2023-05-19T07:57:20;5.55;;;4.65;;
79399;SDS011;68856;45.586;10.264;2023-05-19T07:59:46;9.27;;;5.25;;
79399;SDS011;68856;45.586;10.264;2023-05-19T08:02:12;8.07;;;5.35;;
79399;SDS011;68856;45.586;10.264;2023-05-19T08:04:38;8.43;;;5.40;;
79399;SDS011;68856;45.586;10.264;2023-05-19T08:07:04;7.47;;;5.15;;
79399;SDS011;68856;45.586;10.264;2023-05-19T08:09:30;6.93;;;5.75;;
79399;SDS011;68856;45.586;10.264;2023-05-19T08:11:56;6.03;;;4.75;;
79399;SDS011;68856;45.586;10.264;2023-05-19T08:14:22;6.10;;;4.45;;
79399;SDS011;68856;45.586;10.264;2023-05-19T08:16:49;7.70;;;5.53;;
79399;SDS011;68856;45.586;10.264;2023-05-19T08:19:15;6.93;;;5.85;;
79399;SDS011;68856;45.586;10.264;2023-05-19T08:21:41;6.75;;;5.22;;
79399;SDS011;68856;45.586;10.264;2023-05-19T08:24:08;8.45;;;5.18;;
79399;SDS011;68856;45.586;10.264;2023-05-19T08:26:35;6.82;;;5.50;;
79399;SDS011;68856;45.586;10.264;2023-05-19T08:29:01;5.88;;;5.28;;
79399;SDS011;68856;45.586;10.264;2023-05-19T08:31:27;9.10;;;5.90;;
79399;SDS011;68856;45.586;10.264;2023-05-19T08:33:53;8.60;;;5.63;;
79399;SDS011;68856;45.586;10.264;2023-05-19T08:36:20;6.22;;;5.32;;
79399;SDS011;68856;45.586;10.264;2023-05-19T08:38:46;10.13;;;5.53;;
79399;SDS011;68856;45.586;10.264;2023-05-19T08:41:12;8.60;;;5.63;;
79399;SDS011;68856;45.586;10.264;2023-05-19T08:43:38;7.32;;;5.93;;
79399;SDS011;68856;45.586;10.264;2023-05-19T08:46:04;8.98;;;6.03;;
79399;SDS011;68856;45.586;10.264;2023-05-19T08:48:32;8.25;;;5.68;;
79399;SDS011;68856;45.586;10.264;2023-05-19T08:53:32;6.90;;;5.13;;
79399;SDS011;68856;45.586;10.264;2023-05-19T08:56:03;8.10;;;6.15;;
79399;SDS011;68856;45.586;10.264;2023-05-19T08:58:34;6.68;;;5.20;;
79399;SDS011;68856;45.586;10.264;2023-05-19T09:01:00;10.00;;;5.63;;
79399;SDS011;68856;45.586;10.264;2023-05-19T09:03:28;7.80;;;5.97;;
79399;SDS011;68856;45.586;10.264;2023-05-19T09:05:54;9.93;;;5.93;;
79399;SDS011;68856;45.586;10.264;2023-05-19T09:08:20;11.77;;;5.15;;
79399;SDS011;68856;45.586;10.264;2023-05-19T09:10:46;5.97;;;4.93;;
79399;SDS011;68856;45.586;10.264;2023-05-19T09:13:12;6.40;;;4.95;;
79399;SDS011;68856;45.586;10.264;2023-05-19T09:15:39;9.02;;;5.30;;
79399;SDS011;68856;45.586;10.264;2023-05-19T09:18:11;9.10;;;4.78;;
79399;SDS011;68856;45.586;10.264;2023-05-19T09:20:41;7.35;;;5.10;;
79399;SDS011;68856;45.586;10.264;2023-05-19T09:23:16;8.40;;;4.68;;
79399;SDS011;68856;45.586;10.264;2023-05-19T09:25:50;5.95;;;4.40;;
79399;SDS011;68856;45.586;10.264;2023-05-19T09:28:25;7.65;;;4.88;;
79399;SDS011;68856;45.586;10.264;2023-05-19T09:31:05;8.82;;;5.05;;
79399;SDS011;68856;45.586;10.264;2023-05-19T09:33:35;7.65;;;4.25;;
79399;SDS011;68856;45.586;10.264;2023-05-19T09:36:02;7.32;;;4.63;;
79399;SDS011;68856;45.586;10.264;2023-05-19T09:38:36;9.85;;;4.85;;
79399;SDS011;68856;45.586;10.264;2023-05-19T09:41:03;8.05;;;4.53;;
79399;SDS011;68856;45.586;10.264;2023-05-19T09:43:29;7.90;;;3.83;;
79399;SDS011;68856;45.586;10.264;2023-05-19T09:46:06;5.32;;;3.63;;
79399;SDS011;68856;45.586;10.264;2023-05-19T09:48:33;8.20;;;3.97;;
79399;SDS011;68856;45.586;10.264;2023-05-19T09:51:00;6.95;;;4.13;;
79399;SDS011;68856;45.586;10.264;2023-05-19T09:53:27;5.90;;;3.72;;
79399;SDS011;68856;45.586;10.264;2023-05-19T09:55:54;9.38;;;4.18;;
79399;SDS011;68856;45.586;10.264;2023-05-19T09:58:24;12.05;;;4.20;;
79399;SDS011;68856;45.586;10.264;2023-05-19T10:00:51;9.60;;;3.80;;
79399;SDS011;68856;45.586;10.264;2023-05-19T10:03:21;6.50;;;3.78;;
79399;SDS011;68856;45.586;10.264;2023-05-19T10:05:48;4.90;;;3.47;;
79399;SDS011;68856;45.586;10.264;2023-05-19T10:08:15;7.10;;;3.90;;
79399;SDS011;68856;45.586;10.264;2023-05-19T10:10:43;6.00;;;3.35;;
79399;SDS011;68856;45.586;10.264;2023-05-19T10:13:10;7.95;;;3.90;;
79399;SDS011;68856;45.586;10.264;2023-05-19T10:15:37;5.57;;;3.50;;
79399;SDS011;68856;45.586;10.264;2023-05-19T10:18:05;6.43;;;3.40;;
79399;SDS011;68856;45.586;10.264;2023-05-19T10:20:31;5.38;;;3.90;;
79399;SDS011;68856;45.586;10.264;2023-05-19T10:22:59;5.60;;;3.40;;
79399;SDS011;68856;45.586;10.264;2023-05-19T10:25:26;9.50;;;3.70;;
79399;SDS011;68856;45.586;10.264;2023-05-19T10:27:56;5.68;;;3.20;;
79399;SDS011;68856;45.586;10.264;2023-05-19T10:30:27;5.72;;;3.33;;
79399;SDS011;68856;45.586;10.264;2023-05-19T10:32:54;4.88;;;3.20;;
79399;SDS011;68856;45.586;10.264;2023-05-19T10:43:29;4.75;;;2.47;;
79399;SDS011;68856;45.586;10.264;2023-05-19T10:45:56;4.60;;;2.80;;
79399;SDS011;68856;45.586;10.264;2023-05-19T10:48:22;3.22;;;2.47;;
79399;SDS011;68856;45.586;10.264;2023-05-19T10:50:51;3.75;;;2.90;;
79399;SDS011;68856;45.586;10.264;2023-05-19T10:53:18;4.38;;;2.80;;
79399;SDS011;68856;45.586;10.264;2023-05-19T10:55:50;3.20;;;2.90;;
79399;SDS011;68856;45.586;10.264;2023-05-19T11:01:11;4.35;;;2.80;;
79399;SDS011;68856;45.586;10.264;2023-05-19T11:03:50;5.05;;;2.63;;
79399;SDS011;68856;45.586;10.264;2023-05-19T11:06:24;5.00;;;2.65;;
79399;SDS011;68856;45.586;10.264;2023-05-19T11:08:51;3.72;;;3.03;;
79399;SDS011;68856;45.586;10.264;2023-05-19T11:11:18;6.55;;;2.65;;
79399;SDS011;68856;45.586;10.264;2023-05-19T11:13:52;4.93;;;2.70;;
79399;SDS011;68856;45.586;10.264;2023-05-19T11:16:27;3.38;;;2.97;;
79399;SDS011;68856;45.586;10.264;2023-05-19T11:18:54;3.83;;;2.97;;
79399;SDS011;68856;45.586;10.264;2023-05-19T11:21:21;3.58;;;2.45;;
79399;SDS011;68856;45.586;10.264;2023-05-19T11:23:47;9.05;;;3.67;;
79399;SDS011;68856;45.586;10.264;2023-05-19T11:26:13;3.10;;;2.42;;
79399;SDS011;68856;45.586;10.264;2023-05-19T11:28:39;3.00;;;2.55;;
79399;SDS011;68856;45.586;10.264;2023-05-19T11:31:05;4.80;;;2.85;;
79399;SDS011;68856;45.586;10.264;2023-05-19T11:33:32;3.17;;;2.70;;
79399;SDS011;68856;45.586;10.264;2023-05-19T11:35:59;4.03;;;2.63;;
79399;SDS011;68856;45.586;10.264;2023-05-19T11:38:26;3.22;;;2.33;;
79399;SDS011;68856;45.586;10.264;2023-05-19T11:40:54;2.92;;;2.40;;
79399;SDS011;68856;45.586;10.264;2023-05-19T11:43:24;3.88;;;2.22;;
79399;SDS011;68856;45.586;10.264;2023-05-19T11:45:50;3.42;;;2.40;;
79399;SDS011;68856;45.586;10.264;2023-05-19T11:48:19;5.63;;;2.40;;
79399;SDS011;68856;45.586;10.264;2023-05-19T11:50:45;3.67;;;2.40;;
79399;SDS011;68856;45.586;10.264;2023-05-19T11:53:11;3.92;;;2.42;;
79399;SDS011;68856;45.586;10.264;2023-05-19T11:55:41;5.93;;;2.40;;
79399;SDS011;68856;45.586;10.264;2023-05-19T11:58:08;3.58;;;2.40;;
79399;SDS011;68856;45.586;10.264;2023-05-19T12:00:36;4.75;;;2.83;;
79399;SDS011;68856;45.586;10.264;2023-05-19T12:03:03;2.63;;;2.05;;
79399;SDS011;68856;45.586;10.264;2023-05-19T12:05:29;6.53;;;2.40;;
79399;SDS011;68856;45.586;10.264;2023-05-19T12:07:55;5.68;;;2.60;;
79399;SDS011;68856;45.586;10.264;2023-05-19T12:10:22;8.60;;;2.50;;
79399;SDS011;68856;45.586;10.264;2023-05-19T12:12:52;3.70;;;2.40;;
79399;SDS011;68856;45.586;10.264;2023-05-19T12:15:18;4.03;;;2.40;;
79399;SDS011;68856;45.586;10.264;2023-05-19T12:17:48;3.70;;;2.50;;
79399;SDS011;68856;45.586;10.264;2023-05-19T12:20:14;3.42;;;2.70;;
79399;SDS011;68856;45.586;10.264;2023-05-19T12:22:40;3.47;;;2.55;;
79399;SDS011;68856;45.586;10.264;2023-05-19T12:25:06;3.70;;;2.65;;
79399;SDS011;68856;45.586;10.264;2023-05-19T12:27:36;3.83;;;2.75;;
79399;SDS011;68856;45.586;10.264;2023-05-19T12:30:03;4.38;;;2.70;;
79399;SDS011;68856;45.586;10.264;2023-05-19T12:32:31;3.58;;;2.40;;
79399;SDS011;68856;45.586;10.264;2023-05-19T12:35:00;5.88;;;3.10;;
79399;SDS011;68856;45.586;10.264;2023-05-19T12:37:27;2.53;;;2.33;;
79399;SDS011;68856;45.586;10.264;2023-05-19T12:39:57;13.25;;;3.17;;
79399;SDS011;68856;45.586;10.264;2023-05-19T12:42:27;3.95;;;3.10;;
79399;SDS011;68856;45.586;10.264;2023-05-19T12:44:59;4.70;;;3.30;;
79399;SDS011;68856;45.586;10.264;2023-05-19T12:47:31;3.95;;;3.53;;
79399;SDS011;68856;45.586;10.264;2023-05-19T12:52:23;5.47;;;3.75;;
79399;SDS011;68856;45.586;10.264;2023-05-19T12:54:56;4.07;;;3.22;;
79399;SDS011;68856;45.586;10.264;2023-05-19T12:57:22;6.88;;;4.10;;
79399;SDS011;68856;45.586;10.264;2023-05-19T12:59:48;6.78;;;4.82;;
79399;SDS011;68856;45.586;10.264;2023-05-19T13:02:14;7.00;;;4.07;;
79399;SDS011;68856;45.586;10.264;2023-05-19T13:04:42;8.02;;;4.47;;
79399;SDS011;68856;45.586;10.264;2023-05-19T13:07:08;5.70;;;4.85;;
79399;SDS011;68856;45.586;10.264;2023-05-19T13:09:34;9.55;;;5.40;;
79399;SDS011;68856;45.586;10.264;2023-05-19T13:12:00;7.75;;;4.63;;
79399;SDS011;68856;45.586;10.264;2023-05-19T13:14:28;9.45;;;4.95;;
79399;SDS011;68856;45.586;10.264;2023-05-19T13:16:54;7.28;;;4.70;;
79399;SDS011;68856;45.586;10.264;2023-05-19T13:19:20;7.20;;;5.00;;
79399;SDS011;68856;45.586;10.264;2023-05-19T13:21:46;10.32;;;5.20;;
79399;SDS011;68856;45.586;10.264;2023-05-19T13:24:15;6.35;;;5.20;;
79399;SDS011;68856;45.586;10.264;2023-05-19T13:26:41;7.00;;;5.30;;
79399;SDS011;68856;45.586;10.264;2023-05-19T13:29:07;7.88;;;5.30;;
79399;SDS011;68856;45.586;10.264;2023-05-19T13:31:33;6.70;;;5.10;;
79399;SDS011;68856;45.586;10.264;2023-05-19T13:34:00;8.38;;;5.70;;
79399;SDS011;68856;45.586;10.264;2023-05-19T13:36:27;10.05;;;6.10;;
79399;SDS011;68856;45.586;10.264;2023-05-19T13:38:53;7.70;;;5.50;;
79399;SDS011;68856;45.586;10.264;2023-05-19T13:41:25;9.38;;;5.35;;
79399;SDS011;68856;45.586;10.264;2023-05-19T13:43:53;9.27;;;5.93;;
79399;SDS011;68856;45.586;10.264;2023-05-19T13:46:19;10.77;;;5.70;;
79399;SDS011;68856;45.586;10.264;2023-05-19T13:48:45;10.18;;;6.20;;
79399;SDS011;68856;45.586;10.264;2023-05-19T13:51:11;9.65;;;6.05;;
79399;SDS011;68856;45.586;10.264;2023-05-19T13:53:37;7.45;;;5.55;;
79399;SDS011;68856;45.586;10.264;2023-05-19T13:56:04;7.35;;;5.57;;
79399;SDS011;68856;45.586;10.264;2023-05-19T13:58:30;8.45;;;5.82;;
79399;SDS011;68856;45.586;10.264;2023-05-19T14:00:56;8.93;;;6.43;;
79399;SDS011;68856;45.586;10.264;2023-05-19T14:03:24;7.50;;;5.57;;
79399;SDS011;68856;45.586;10.264;2023-05-19T14:05:50;6.85;;;5.80;;
79399;SDS011;68856;45.586;10.264;2023-05-19T14:08:17;7.05;;;5.85;;
79399;SDS011;68856;45.586;10.264;2023-05-19T14:10:46;7.55;;;5.47;;
79399;SDS011;68856;45.586;10.264;2023-05-19T14:13:12;6.45;;;5.38;;
79399;SDS011;68856;45.586;10.264;2023-05-19T14:15:38;5.97;;;5.10;;
79399;SDS011;68856;45.586;10.264;2023-05-19T14:18:05;7.78;;;5.53;;
79399;SDS011;68856;45.586;10.264;2023-05-19T14:20:31;7.10;;;4.97;;
79399;SDS011;68856;45.586;10.264;2023-05-19T14:22:57;5.50;;;4.13;;
79399;SDS011;68856;45.586;10.264;2023-05-19T14:25:23;6.28;;;4.45;;
79399;SDS011;68856;45.586;10.264;2023-05-19T14:27:49;5.18;;;4.40;;
79399;SDS011;68856;45.586;10.264;2023-05-19T14:30:15;5.93;;;4.40;;
79399;SDS011;68856;45.586;10.264;2023-05-19T14:32:41;5.40;;;4.32;;
79399;SDS011;68856;45.586;10.264;2023-05-19T14:35:07;5.85;;;3.95;;
79399;SDS011;68856;45.586;10.264;2023-05-19T14:37:33;5.35;;;4.10;;
79399;SDS011;68856;45.586;10.264;2023-05-19T14:40:00;4.43;;;3.97;;
79399;SDS011;68856;45.586;10.264;2023-05-19T14:42:26;5.68;;;4.40;;
79399;SDS011;68856;45.586;10.264;2023-05-19T14:44:52;4.10;;;3.45;;
79399;SDS011;68856;45.586;10.264;2023-05-19T14:47:18;4.97;;;3.95;;
79399;SDS011;68856;45.586;10.264;2023-05-19T14:49:44;5.78;;;3.60;;
79399;SDS011;68856;45.586;10.264;2023-05-19T14:52:10;3.75;;;3.35;;
79399;SDS011;68856;45.586;10.264;2023-05-19T14:54:36;4.53;;;3.78;;
79399;SDS011;68856;45.586;10.264;2023-05-19T14:57:02;4.95;;;3.92;;
79399;SDS011;68856;45.586;10.264;2023-05-19T14:59:28;6.60;;;3.95;;
79399;SDS011;68856;45.586;10.264;2023-05-19T15:01:54;3.90;;;3.47;;
79399;SDS011;68856;45.586;10.264;2023-05-19T15:04:20;6.07;;;4.20;;
79399;SDS011;68856;45.586;10.264;2023-05-19T15:06:46;6.35;;;4.10;;
79399;SDS011;68856;45.586;10.264;2023-05-19T15:09:12;5.40;;;4.25;;